EGCC

Manchester Airport

Manchester, United Kingdom
METAR EGCC 250820Z AUTO 24011KT 9999 SCT023 BKN035 OVC048 09/06 Q1009
Observed Flight Rules
Apr-25 @ 08:20 UTC (12 minutes ago) Visual Flight Rules
Wind Visibility Clouds
240° at 11 knots 10,000+ meters
  • Scattered at 2,300' AGL
  • Broken at 3,500' AGL
  • Overcast at 4,800' AGL
Temperatures Readings
Current 9°C / 48°F
Dewpoint 6°C / 43°F
Humidity 82%
Altimeter 29.79" Hg
Pressure 1009 hPa
Elevation 78
METAR EGCC 250820Z AUTO 24011KT 9999 SCT023 BKN035 OVC048 09/06 Q1009
Observed Flight Rules
Apr-25 @ 08:20 UTC
(12 minutes ago)
VFR
Wind Visibility
240° at 11 knots 10,000+ meters
Clouds
  • Scattered at 2,300' AGL
  • Broken at 3,500' AGL
  • Overcast at 4,800' AGL
Temperature Dewpoint
9°C / 48°F 6°C / 43°F
Humidity Altimeter Pressure
82% 29.79" Hg 1009 hPa